createdAt,value
2023-04-18T00:01:06.534Z,2.30
2023-04-18T00:03:33.611Z,2.25
2023-04-18T00:06:00.850Z,2.40
2023-04-18T00:08:28.545Z,2.15
2023-04-18T00:10:55.420Z,2.45
2023-04-18T00:13:22.253Z,2.20
2023-04-18T00:15:49.231Z,2.20
2023-04-18T00:18:17.332Z,2.22
2023-04-18T00:20:46.224Z,2.10
2023-04-18T00:23:14.249Z,2.40
2023-04-18T00:25:41.321Z,2.10
2023-04-18T00:28:08.369Z,2.10
2023-04-18T00:30:35.454Z,2.50
2023-04-18T00:33:02.449Z,2.50
2023-04-18T00:35:29.381Z,2.20
2023-04-18T00:37:56.273Z,2.47
2023-04-18T00:40:23.127Z,2.63
2023-04-18T00:42:49.987Z,2.45
2023-04-18T00:45:16.940Z,2.17
2023-04-18T00:47:43.873Z,2.47
2023-04-18T00:50:11.661Z,2.47
2023-04-18T00:52:38.899Z,2.60
2023-04-18T00:55:07.811Z,2.30
2023-04-18T00:57:35.146Z,2.47
2023-04-18T01:00:08.861Z,2.25
2023-04-18T01:02:39.892Z,2.50
2023-04-18T01:05:08.061Z,2.30
2023-04-18T01:07:37.433Z,2.40
2023-04-18T01:10:04.983Z,2.33
2023-04-18T01:12:31.811Z,2.13
2023-04-18T01:15:00.720Z,2.60
2023-04-18T01:17:28.647Z,2.30
2023-04-18T01:19:56.729Z,2.30
2023-04-18T01:22:24.068Z,2.50
2023-04-18T01:24:50.946Z,2.50
2023-04-18T01:27:17.789Z,2.70
2023-04-18T01:29:44.767Z,2.33
2023-04-18T01:32:11.689Z,2.33
2023-04-18T01:34:38.530Z,2.28
2023-04-18T01:37:05.517Z,2.40
2023-04-18T01:39:32.369Z,2.38
2023-04-18T01:42:01.385Z,2.40
2023-04-18T01:44:28.341Z,2.50
2023-04-18T01:46:55.328Z,2.67
2023-04-18T01:49:22.328Z,2.30
2023-04-18T01:51:49.224Z,2.40
2023-04-18T01:54:16.411Z,2.45
2023-04-18T01:56:44.713Z,2.72
2023-04-18T01:59:11.638Z,2.20
2023-04-18T02:01:38.580Z,2.50
2023-04-18T02:04:05.623Z,2.40
2023-04-18T02:06:32.550Z,2.30
2023-04-18T02:08:59.435Z,2.47
2023-04-18T02:11:26.340Z,2.65
2023-04-18T02:13:53.220Z,2.33
2023-04-18T02:16:20.203Z,2.47
2023-04-18T02:18:47.223Z,2.60
2023-04-18T02:21:14.174Z,2.38
2023-04-18T02:23:41.006Z,2.70
2023-04-18T02:26:07.829Z,2.67
2023-04-18T02:28:34.813Z,2.75
2023-04-18T02:31:01.707Z,2.80
2023-04-18T02:33:28.640Z,2.50
2023-04-18T02:35:55.540Z,2.95
2023-04-18T02:38:22.435Z,3.00
2023-04-18T02:40:49.311Z,2.90
2023-04-18T02:43:16.262Z,2.90
2023-04-18T02:45:43.166Z,3.03
2023-04-18T02:48:10.077Z,3.15
2023-04-18T02:50:36.987Z,3.05
2023-04-18T02:53:03.948Z,3.00
2023-04-18T02:55:30.799Z,2.83
2023-04-18T02:57:57.959Z,2.75
2023-04-18T03:00:25.073Z,2.97
2023-04-18T03:02:53.367Z,3.17
2023-04-18T03:05:22.064Z,3.35
2023-04-18T03:07:49.006Z,2.85
2023-04-18T03:10:16.357Z,3.13
2023-04-18T03:12:43.297Z,3.30
2023-04-18T03:15:10.595Z,3.58
2023-04-18T03:17:37.501Z,3.22
2023-04-18T03:20:04.818Z,3.30
2023-04-18T03:22:31.686Z,2.83
2023-04-18T03:25:00.216Z,3.03
2023-04-18T03:27:27.183Z,2.50
2023-04-18T03:29:54.082Z,3.20
2023-04-18T03:32:21.053Z,3.05
2023-04-18T03:34:48.689Z,2.78
2023-04-18T03:37:15.656Z,3.35
2023-04-18T03:39:42.532Z,3.13
2023-04-18T03:42:09.391Z,2.90
2023-04-18T03:44:36.295Z,2.97
2023-04-18T03:47:03.603Z,3.00
2023-04-18T03:49:30.687Z,3.08
2023-04-18T03:51:57.578Z,2.80
2023-04-18T03:54:24.438Z,2.88
2023-04-18T03:56:51.340Z,2.95
2023-04-18T03:59:18.229Z,3.10
2023-04-18T04:01:45.137Z,2.75
2023-04-18T04:04:14.010Z,2.97
2023-04-18T04:06:41.845Z,2.92
2023-04-18T04:09:08.669Z,3.20
2023-04-18T04:11:35.593Z,2.97
2023-04-18T04:14:02.481Z,3.00
2023-04-18T04:16:29.640Z,3.30
2023-04-18T04:18:56.579Z,3.20
2023-04-18T04:21:23.463Z,2.70
2023-04-18T04:23:50.604Z,3.20
2023-04-18T04:26:17.511Z,2.88
2023-04-18T04:28:46.732Z,2.90
2023-04-18T04:31:13.810Z,3.00
2023-04-18T04:33:41.147Z,3.10
2023-04-18T04:36:09.025Z,2.75
2023-04-18T04:38:38.435Z,3.17
2023-04-18T04:41:09.602Z,3.08
2023-04-18T04:43:36.646Z,2.95
2023-04-18T04:46:04.356Z,3.22
2023-04-18T04:48:31.374Z,3.10
2023-04-18T04:50:59.792Z,2.85
2023-04-18T04:53:32.500Z,2.95
2023-04-18T04:55:59.506Z,3.20
2023-04-18T04:58:26.641Z,3.20
2023-04-18T05:00:53.974Z,2.95
2023-04-18T05:03:21.200Z,3.15
2023-04-18T05:05:48.559Z,3.28
2023-04-18T05:08:15.480Z,3.20
2023-04-18T05:10:43.430Z,3.30
2023-04-18T05:13:10.517Z,3.00
2023-04-18T05:15:37.666Z,3.10
2023-04-18T05:18:04.809Z,2.97
2023-04-18T05:20:31.772Z,3.03
2023-04-18T05:22:58.646Z,3.05
2023-04-18T05:25:25.869Z,2.92
2023-04-18T05:27:52.823Z,3.15
2023-04-18T05:30:19.759Z,3.30
2023-04-18T05:32:46.640Z,3.42
2023-04-18T05:35:13.602Z,2.90
2023-04-18T05:37:40.521Z,3.15
2023-04-18T05:40:09.162Z,2.90
2023-04-18T05:42:36.065Z,3.20
2023-04-18T05:45:03.102Z,3.78
2023-04-18T05:47:30.503Z,3.80
2023-04-18T05:49:57.404Z,3.42
2023-04-18T05:52:26.139Z,3.45
2023-04-18T05:54:53.368Z,3.25
2023-04-18T05:57:20.463Z,3.08
2023-04-18T05:59:47.453Z,3.20
2023-04-18T06:02:14.467Z,3.10
2023-04-18T06:04:42.482Z,3.28
2023-04-18T06:07:10.116Z,3.28
2023-04-18T06:09:37.158Z,3.83
2023-04-18T06:12:04.343Z,3.67
2023-04-18T06:14:31.407Z,3.70
2023-04-18T06:16:58.761Z,3.92
2023-04-18T06:19:25.796Z,3.50
2023-04-18T06:21:53.119Z,3.22
2023-04-18T06:24:20.012Z,3.60
2023-04-18T06:26:47.414Z,3.80
2023-04-18T06:29:14.402Z,4.03
2023-04-18T06:31:42.254Z,3.80
2023-04-18T06:34:09.472Z,3.40
2023-04-18T06:36:36.417Z,3.83
2023-04-18T06:39:03.898Z,3.60
2023-04-18T06:41:31.666Z,4.00
2023-04-18T06:46:28.411Z,3.90
2023-04-18T06:48:55.553Z,3.95
2023-04-18T06:51:22.551Z,3.92
2023-04-18T06:53:52.692Z,4.05
2023-04-18T06:56:22.725Z,4.00
2023-04-18T06:58:50.382Z,4.22
2023-04-18T07:01:17.319Z,4.00
2023-04-18T07:03:44.628Z,3.85
2023-04-18T07:06:11.669Z,4.50
2023-04-18T07:08:38.853Z,3.85
2023-04-18T07:11:06.810Z,3.83
2023-04-18T07:13:33.731Z,3.85
2023-04-18T07:16:01.594Z,3.90
2023-04-18T07:18:37.473Z,4.95
2023-04-18T07:21:07.855Z,4.35
2023-04-18T07:23:35.987Z,4.10
2023-04-18T07:26:05.348Z,4.43
2023-04-18T07:28:33.001Z,4.93
2023-04-18T07:31:01.383Z,4.85
2023-04-18T07:33:31.818Z,4.30
2023-04-18T07:35:58.795Z,4.38
2023-04-18T07:38:25.806Z,4.47
2023-04-18T07:41:02.525Z,4.20
2023-04-18T07:43:30.017Z,4.32
2023-04-18T07:45:57.004Z,3.97
2023-04-18T07:48:25.321Z,4.32
2023-04-18T07:50:52.882Z,3.83
2023-04-18T07:53:19.795Z,4.03
2023-04-18T07:55:46.945Z,4.20
2023-04-18T07:58:14.232Z,4.10
2023-04-18T08:00:42.733Z,3.90
2023-04-18T08:03:12.263Z,4.15
2023-04-18T08:05:40.191Z,3.72
2023-04-18T08:08:08.692Z,4.10
2023-04-18T08:10:36.011Z,4.30
2023-04-18T08:13:03.388Z,4.47
2023-04-18T08:15:32.553Z,3.53
2023-04-18T08:18:00.453Z,4.10
2023-04-18T08:20:27.654Z,3.83
2023-04-18T08:23:05.268Z,3.90
2023-04-18T08:25:36.547Z,3.53
2023-04-18T08:28:04.088Z,3.63
2023-04-18T08:30:31.399Z,3.78
2023-04-18T08:33:01.652Z,3.90
2023-04-18T08:35:28.732Z,3.70
2023-04-18T08:37:55.621Z,3.72
2023-04-18T08:40:22.681Z,4.00
2023-04-18T08:42:52.099Z,4.25
2023-04-18T08:45:20.096Z,4.45
2023-04-18T08:47:47.393Z,4.00
2023-04-18T08:50:14.419Z,4.05
2023-04-18T08:52:49.443Z,4.25
2023-04-18T08:55:16.589Z,3.58
2023-04-18T08:57:44.217Z,3.90
2023-04-18T09:00:11.959Z,3.92
2023-04-18T09:02:44.663Z,3.83
2023-04-18T09:05:19.090Z,3.78
2023-04-18T09:07:51.559Z,3.60
2023-04-18T09:10:37.247Z,3.88
2023-04-18T09:13:04.581Z,3.42
2023-04-18T09:15:31.625Z,4.03
2023-04-18T09:18:05.766Z,3.67
2023-04-18T09:20:38.389Z,3.85
2023-04-18T09:23:11.042Z,3.88
2023-04-18T09:25:46.965Z,3.83
2023-04-18T09:28:33.449Z,4.00
2023-04-18T09:31:15.694Z,3.30
2023-04-18T09:33:56.959Z,3.28
2023-04-18T09:36:27.419Z,3.50
2023-04-18T09:38:57.029Z,3.85
2023-04-18T09:41:24.656Z,3.78
2023-04-18T09:44:17.131Z,3.45
2023-04-18T09:46:47.433Z,3.47
2023-04-18T09:49:15.153Z,3.72
2023-04-18T09:51:44.500Z,3.53
2023-04-18T09:54:15.220Z,3.72
2023-04-18T09:56:46.319Z,3.30
2023-04-18T09:59:18.076Z,3.83
2023-04-18T10:01:48.489Z,4.07
2023-04-18T10:04:17.283Z,3.60
2023-04-18T10:06:46.874Z,3.75
2023-04-18T10:09:16.159Z,3.70
2023-04-18T10:11:44.460Z,3.40
2023-04-18T10:14:14.279Z,3.83
2023-04-18T10:16:45.518Z,3.42
2023-04-18T10:19:25.385Z,3.47
2023-04-18T10:21:57.562Z,3.47
2023-04-18T10:24:56.294Z,3.67
2023-04-18T10:27:47.880Z,3.60
2023-04-18T10:30:16.267Z,3.47
2023-04-18T10:32:43.404Z,3.45
2023-04-18T10:35:11.577Z,3.50
2023-04-18T10:37:51.567Z,3.60
2023-04-18T10:40:35.396Z,3.55
2023-04-18T10:45:32.597Z,3.53
2023-04-18T10:48:25.619Z,3.30
2023-04-18T10:51:14.960Z,3.35
2023-04-18T10:54:02.721Z,3.63
2023-04-18T10:56:29.752Z,3.83
2023-04-18T10:59:01.935Z,3.30
2023-04-18T11:01:33.036Z,3.35
2023-04-18T11:04:00.460Z,3.42
2023-04-18T11:06:27.829Z,3.38
2023-04-18T11:09:14.418Z,3.97
2023-04-18T11:12:15.080Z,3.53
2023-04-18T11:17:33.153Z,3.42
2023-04-18T11:20:11.591Z,3.30
2023-04-18T11:22:57.536Z,3.55
2023-04-18T11:25:28.087Z,3.30
2023-04-18T11:27:58.061Z,3.42
2023-04-18T11:30:25.436Z,3.22
2023-04-18T11:32:52.486Z,3.40
2023-04-18T11:35:19.648Z,3.10
2023-04-18T11:37:46.694Z,3.28
2023-04-18T11:40:14.536Z,3.42
2023-04-18T11:42:42.155Z,2.90
2023-04-18T11:45:11.838Z,3.15
2023-04-18T11:47:39.516Z,3.20
2023-04-18T11:50:08.402Z,3.22
2023-04-18T11:52:36.528Z,3.25
2023-04-18T11:55:13.820Z,2.92
2023-04-18T11:57:41.400Z,3.47
2023-04-18T12:00:10.442Z,2.85
2023-04-18T12:02:40.563Z,3.25
2023-04-18T12:05:08.021Z,3.00
2023-04-18T12:07:40.135Z,3.17
2023-04-18T12:10:20.652Z,2.88
2023-04-18T12:12:56.514Z,3.30
2023-04-18T12:15:27.318Z,2.90
2023-04-18T12:18:01.482Z,3.10
2023-04-18T12:20:38.879Z,3.40
2023-04-18T12:23:06.664Z,3.13
2023-04-18T12:25:34.862Z,3.30
2023-04-18T12:28:23.145Z,2.85
2023-04-18T12:30:49.980Z,2.97
2023-04-18T12:33:16.953Z,2.60
2023-04-18T12:35:43.987Z,2.65
2023-04-18T12:38:11.190Z,2.95
2023-04-18T12:40:40.294Z,2.63
2023-04-18T12:43:08.301Z,2.67
2023-04-18T12:45:35.865Z,3.00
2023-04-18T12:48:02.755Z,3.38
2023-04-18T12:50:29.701Z,3.15
2023-04-18T12:52:59.136Z,2.75
2023-04-18T12:55:26.450Z,2.53
2023-04-18T12:57:54.889Z,2.90
2023-04-18T13:00:26.090Z,2.67
2023-04-18T13:02:53.066Z,2.90
2023-04-18T13:05:22.440Z,2.78
2023-04-18T13:07:49.859Z,3.85
2023-04-18T13:10:22.008Z,3.22
2023-04-18T13:12:50.842Z,3.55
2023-04-18T13:15:18.364Z,3.88
2023-04-18T13:17:45.498Z,3.45
2023-04-18T13:20:12.969Z,3.65
2023-04-18T13:22:43.941Z,3.60
2023-04-18T13:25:11.561Z,3.45
2023-04-18T13:27:41.809Z,3.70
2023-04-18T13:30:11.125Z,3.63
2023-04-18T13:32:40.487Z,4.40
2023-04-18T13:35:08.956Z,3.60
2023-04-18T13:37:36.778Z,3.67
2023-04-18T13:40:08.062Z,3.40
2023-04-18T13:42:36.789Z,3.08
2023-04-18T13:45:04.230Z,3.17
2023-04-18T13:47:31.386Z,3.60
2023-04-18T13:49:58.545Z,3.50
2023-04-18T13:52:26.153Z,3.67
2023-04-18T13:54:53.370Z,3.75
2023-04-18T13:57:20.352Z,4.38
2023-04-18T13:59:47.239Z,3.92
2023-04-18T14:02:14.515Z,4.15
2023-04-18T14:04:41.673Z,3.70
2023-04-18T14:07:09.328Z,4.00
2023-04-18T14:09:36.364Z,3.47
2023-04-18T14:12:03.353Z,3.20
2023-04-18T14:14:30.455Z,3.80
2023-04-18T14:16:57.469Z,3.72
2023-04-18T14:19:24.667Z,3.72
2023-04-18T14:21:51.647Z,3.13
2023-04-18T14:24:18.783Z,3.08
2023-04-18T14:26:45.714Z,3.80
2023-04-18T14:29:14.395Z,2.92
2023-04-18T14:31:42.438Z,3.03
2023-04-18T14:34:09.855Z,3.20
2023-04-18T14:36:36.962Z,3.00
2023-04-18T14:39:04.852Z,3.00
2023-04-18T14:41:31.793Z,2.80
2023-04-18T14:43:58.846Z,2.80
2023-04-18T14:46:27.304Z,2.60
2023-04-18T14:48:54.337Z,2.30
2023-04-18T14:51:21.198Z,2.30
2023-04-18T14:53:48.127Z,2.40
2023-04-18T14:56:16.227Z,2.47
2023-04-18T14:58:43.901Z,2.40
2023-04-18T15:01:10.898Z,2.20
2023-04-18T15:03:38.136Z,1.92
2023-04-18T15:06:05.201Z,2.00
2023-04-18T15:08:32.867Z,2.47
2023-04-18T15:10:59.944Z,1.85
2023-04-18T15:13:26.807Z,1.90
2023-04-18T15:15:54.551Z,1.95
2023-04-18T15:18:21.622Z,1.80
2023-04-18T15:20:48.648Z,1.88
2023-04-18T15:23:16.029Z,1.75
2023-04-18T15:25:44.561Z,1.60
2023-04-18T15:28:13.761Z,2.00
2023-04-18T15:30:40.795Z,1.90
2023-04-18T15:33:08.312Z,1.77
2023-04-18T15:35:35.845Z,1.88
2023-04-18T15:38:03.326Z,1.75
2023-04-18T15:40:30.760Z,1.70
2023-04-18T15:42:59.623Z,1.80
2023-04-18T15:45:26.824Z,1.70
2023-04-18T15:47:53.852Z,1.88
2023-04-18T15:50:21.023Z,1.80
2023-04-18T15:52:47.934Z,1.70
2023-04-18T15:55:15.059Z,1.90
2023-04-18T15:57:42.096Z,1.60
2023-04-18T16:00:20.917Z,1.90
2023-04-18T16:02:48.104Z,1.60
2023-04-18T16:05:16.151Z,2.00
2023-04-18T16:07:43.205Z,1.83
2023-04-18T16:10:11.149Z,1.60
2023-04-18T16:12:39.572Z,1.73
2023-04-18T16:15:08.589Z,1.67
2023-04-18T16:17:36.775Z,2.08
2023-04-18T16:20:04.660Z,1.80
2023-04-18T16:22:31.609Z,1.65
2023-04-18T16:24:58.439Z,1.77
2023-04-18T16:27:25.371Z,1.50
2023-04-18T16:29:53.793Z,1.58
2023-04-18T16:32:20.938Z,1.83
2023-04-18T16:34:48.396Z,1.75
2023-04-18T16:37:15.398Z,1.75
2023-04-18T16:39:42.232Z,1.92
2023-04-18T16:42:09.100Z,1.90
2023-04-18T16:44:36.109Z,1.83
2023-04-18T16:47:05.045Z,2.00
2023-04-18T16:49:32.093Z,1.95
2023-04-18T16:51:59.012Z,2.40
2023-04-18T16:54:25.911Z,2.25
2023-04-18T16:56:52.940Z,2.40
2023-04-18T16:59:19.822Z,2.72
2023-04-18T17:01:46.793Z,2.40
2023-04-18T17:04:15.388Z,2.53
2023-04-18T17:06:43.820Z,2.50
2023-04-18T17:09:13.695Z,1.90
2023-04-18T17:11:43.948Z,1.70
2023-04-18T17:14:11.688Z,1.88
2023-04-18T17:16:40.044Z,1.60
2023-04-18T17:19:07.496Z,1.80
2023-04-18T17:21:35.074Z,1.48
2023-04-18T17:24:07.990Z,1.77
2023-04-18T17:26:35.933Z,2.05
2023-04-18T17:29:04.362Z,1.60
2023-04-18T17:31:32.084Z,1.50
2023-04-18T17:33:59.715Z,1.85
2023-04-18T17:36:26.593Z,1.60
2023-04-18T17:38:53.452Z,1.77
2023-04-18T17:41:21.802Z,1.70
2023-04-18T17:43:50.982Z,1.50
2023-04-18T17:46:18.244Z,1.65
2023-04-18T17:48:45.406Z,1.85
2023-04-18T17:51:12.303Z,1.90
2023-04-18T17:53:39.210Z,1.80
2023-04-18T17:56:06.322Z,2.00
2023-04-18T17:58:33.237Z,1.55
2023-04-18T18:01:00.280Z,1.67
2023-04-18T18:03:27.521Z,1.77
2023-04-18T18:05:57.390Z,1.70
2023-04-18T18:08:24.605Z,1.83
2023-04-18T18:10:51.563Z,1.55
2023-04-18T18:13:18.456Z,1.88
2023-04-18T18:15:45.637Z,1.50
2023-04-18T18:18:12.512Z,1.65
2023-04-18T18:20:43.206Z,1.40
2023-04-18T18:23:10.341Z,1.52
2023-04-18T18:25:37.845Z,1.60
2023-04-18T18:28:04.880Z,1.65
2023-04-18T18:30:31.831Z,1.98
2023-04-18T18:32:59.102Z,1.70
2023-04-18T18:35:25.983Z,1.70
2023-04-18T18:37:52.911Z,1.73
2023-04-18T18:40:19.881Z,1.73
2023-04-18T18:42:46.952Z,1.60
2023-04-18T18:45:13.908Z,1.92
2023-04-18T18:47:41.084Z,1.98
2023-04-18T18:50:08.244Z,1.63
2023-04-18T18:52:35.308Z,2.00
2023-04-18T18:55:03.270Z,2.00
2023-04-18T18:57:30.180Z,2.20
2023-04-18T18:59:57.068Z,2.05
2023-04-18T19:02:24.232Z,1.60
2023-04-18T19:04:51.281Z,1.98
2023-04-18T19:07:18.169Z,1.85
2023-04-18T19:09:46.457Z,1.95
2023-04-18T19:12:13.369Z,1.70
2023-04-18T19:14:42.291Z,1.80
2023-04-18T19:17:09.404Z,1.85
2023-04-18T19:19:36.323Z,1.88
2023-04-18T19:22:03.353Z,1.88
2023-04-18T19:24:31.979Z,1.75
2023-04-18T19:26:59.799Z,2.20
2023-04-18T19:29:26.935Z,1.80
2023-04-18T19:31:54.076Z,1.73
2023-04-18T19:34:22.176Z,2.17
2023-04-18T19:36:49.312Z,1.73
2023-04-18T19:39:17.444Z,1.50
2023-04-18T19:41:44.387Z,2.25
2023-04-18T19:44:11.231Z,1.83
2023-04-18T19:46:38.172Z,1.60
2023-04-18T19:49:05.149Z,1.60
2023-04-18T19:51:32.057Z,1.70
2023-04-18T19:53:58.997Z,1.40
2023-04-18T19:56:25.898Z,1.63
2023-04-18T19:58:52.931Z,1.33
2023-04-18T20:01:21.082Z,1.60
2023-04-18T20:03:48.354Z,1.60
2023-04-18T20:06:17.026Z,1.90
2023-04-18T20:08:45.922Z,1.92
2023-04-18T20:11:16.438Z,1.73
2023-04-18T20:13:43.320Z,2.15
2023-04-18T20:16:11.282Z,2.83
2023-04-18T20:18:39.599Z,2.83
2023-04-18T20:21:08.084Z,3.10
2023-04-18T20:23:36.108Z,3.35
2023-04-18T20:26:04.262Z,3.35
2023-04-18T20:28:31.923Z,3.10
2023-04-18T20:30:59.149Z,3.35
2023-04-18T20:33:26.149Z,3.05
2023-04-18T20:35:54.720Z,3.30
2023-04-18T20:38:26.136Z,3.50
2023-04-18T20:40:54.307Z,3.17
2023-04-18T20:43:21.512Z,2.30
2023-04-18T20:45:51.000Z,2.85
2023-04-18T20:48:18.523Z,2.42
2023-04-18T20:50:51.150Z,2.20
2023-04-18T20:53:22.538Z,2.63
2023-04-18T20:55:49.582Z,2.28
2023-04-18T20:58:16.849Z,2.20
2023-04-18T21:00:45.072Z,1.80
2023-04-18T21:03:16.538Z,2.22
2023-04-18T21:05:44.913Z,2.28
2023-04-18T21:08:11.842Z,2.10
2023-04-18T21:10:38.752Z,2.10
2023-04-18T21:13:05.781Z,2.22
2023-04-18T21:15:32.685Z,2.10
2023-04-18T21:17:59.699Z,1.73
2023-04-18T21:20:26.823Z,1.95
2023-04-18T21:22:53.709Z,2.10
2023-04-18T21:25:21.393Z,2.00
2023-04-18T21:27:50.662Z,2.38
2023-04-18T21:30:17.796Z,2.28
2023-04-18T21:32:45.879Z,1.90
2023-04-18T21:35:13.208Z,2.20
2023-04-18T21:37:40.068Z,1.90
2023-04-18T21:40:07.756Z,2.00
2023-04-18T21:42:35.722Z,2.20
2023-04-18T21:45:02.933Z,2.15
2023-04-18T21:47:29.938Z,2.40
2023-04-18T21:49:56.853Z,2.20
2023-04-18T21:52:23.734Z,2.42
2023-04-18T21:54:50.640Z,2.15
2023-04-18T21:57:17.586Z,2.45
2023-04-18T21:59:44.467Z,2.38
2023-04-18T22:02:11.474Z,1.95
2023-04-18T22:04:43.048Z,2.60
2023-04-18T22:07:11.487Z,2.40
2023-04-18T22:09:38.522Z,2.50
2023-04-18T22:12:05.679Z,2.42
2023-04-18T22:14:32.570Z,2.60
2023-04-18T22:17:01.792Z,2.53
2023-04-18T22:19:29.633Z,2.30
2023-04-18T22:21:56.837Z,2.47
2023-04-18T22:24:24.674Z,2.53
2023-04-18T22:26:52.234Z,2.60
2023-04-18T22:29:19.555Z,2.03
2023-04-18T22:31:46.457Z,2.47
2023-04-18T22:34:13.720Z,2.28
2023-04-18T22:36:42.782Z,2.15
2023-04-18T22:39:09.845Z,2.38
2023-04-18T22:41:36.786Z,2.42
2023-04-18T22:44:04.669Z,2.20
2023-04-18T22:46:32.932Z,2.13
2023-04-18T22:48:59.986Z,2.22
2023-04-18T22:51:28.687Z,2.47
2023-04-18T22:53:56.532Z,2.28
2023-04-18T22:56:23.574Z,1.98
2023-04-18T22:58:50.706Z,2.35
2023-04-18T23:01:17.836Z,2.00
2023-04-18T23:03:44.981Z,2.10
2023-04-18T23:06:11.942Z,2.25
2023-04-18T23:08:38.770Z,2.08
2023-04-18T23:11:05.879Z,2.03
2023-04-18T23:13:32.718Z,2.28
2023-04-18T23:15:59.625Z,2.10
2023-04-18T23:18:29.993Z,2.13
2023-04-18T23:20:56.855Z,1.83
2023-04-18T23:23:23.716Z,2.10
2023-04-18T23:25:50.641Z,1.88
2023-04-18T23:28:17.565Z,2.55
2023-04-18T23:30:44.451Z,2.08
2023-04-18T23:33:11.437Z,1.92
2023-04-18T23:35:38.262Z,1.95
2023-04-18T23:38:05.105Z,2.03
2023-04-18T23:40:31.994Z,2.10
2023-04-18T23:42:59.171Z,2.13
2023-04-18T23:45:26.225Z,2.00
2023-04-18T23:47:53.302Z,1.90
2023-04-18T23:50:20.648Z,2.08
2023-04-18T23:52:47.616Z,2.60
2023-04-18T23:55:14.508Z,2.10
2023-04-18T23:57:41.397Z,1.95
